Terminal Aerodrome Forecast
Issued by NWS Tampa Bay Area, FL

Home | Current Version | Previous Version | Text Only | Print | Product List | Glossary Off
Versions: 1 2 3 4 5 6 7 8 9 10 11 12 13 14 15 16 17 18

000
FTUS42 KTBW 132300 RRA
TAFSRQ
TAF
KSRQ 132341Z 1400/1424 11011KT P6SM BKN040
     FM140400 10010KT P6SM SCT250
     FM140900 11006KT 6SM BR FEW001 SCT020
     FM141500 17010KT P6SM FEW200
     FM141700 21013KT P6SM FEW250=

USA.gov is the U.S. government's official web portal to all federal, state and local government web resources and services.